sensor_id;sensor_type;location;lat;lon;timestamp;pressure;altitude;pressure_sealevel;temperature;humidity
77325;BME280;66387;53.440;10.390;2024-03-22T00:02:11;101274.38;;;7.35;100.00
77325;BME280;66387;53.440;10.390;2024-03-22T00:04:37;101267.53;;;7.40;100.00
77325;BME280;66387;53.440;10.390;2024-03-22T00:07:02;101259.78;;;7.40;100.00
77325;BME280;66387;53.440;10.390;2024-03-22T00:09:28;101259.81;;;7.42;100.00
77325;BME280;66387;53.440;10.390;2024-03-22T00:11:53;101267.59;;;7.45;100.00
77325;BME280;66387;53.440;10.390;2024-03-22T00:14:18;101264.13;;;7.45;100.00
77325;BME280;66387;53.440;10.390;2024-03-22T00:16:44;101264.16;;;7.46;100.00
77325;BME280;66387;53.440;10.390;2024-03-22T00:19:09;101244.34;;;7.45;100.00
77325;BME280;66387;53.440;10.390;2024-03-22T00:21:34;101249.50;;;7.45;100.00
77325;BME280;66387;53.440;10.390;2024-03-22T00:24:00;101239.16;;;7.44;100.00
77325;BME280;66387;53.440;10.390;2024-03-22T00:26:26;101230.53;;;7.42;100.00
77325;BME280;66387;53.440;10.390;2024-03-22T00:28:51;101228.81;;;7.42;100.00
77325;BME280;66387;53.440;10.390;2024-03-22T00:31:17;101223.66;;;7.44;100.00
77325;BME280;66387;53.440;10.390;2024-03-22T00:33:42;101220.25;;;7.48;100.00
77325;BME280;66387;53.440;10.390;2024-03-22T00:36:08;101215.06;;;7.45;100.00
77325;BME280;66387;53.440;10.390;2024-03-22T00:38:33;101209.03;;;7.46;100.00
77325;BME280;66387;53.440;10.390;2024-03-22T00:40:58;101213.38;;;7.51;100.00
77325;BME280;66387;53.440;10.390;2024-03-22T00:43:24;101210.84;;;7.56;100.00
77325;BME280;66387;53.440;10.390;2024-03-22T00:45:49;101201.38;;;7.53;100.00
77325;BME280;66387;53.440;10.390;2024-03-22T00:48:14;101208.25;;;7.56;100.00
77325;BME280;66387;53.440;10.390;2024-03-22T00:50:39;101210.88;;;7.59;100.00
77325;BME280;66387;53.440;10.390;2024-03-22T00:53:04;101207.47;;;7.63;100.00
77325;BME280;66387;53.440;10.390;2024-03-22T00:55:31;101208.28;;;7.59;100.00
77325;BME280;66387;53.440;10.390;2024-03-22T00:57:57;101200.59;;;7.63;100.00
77325;BME280;66387;53.440;10.390;2024-03-22T01:00:22;101193.63;;;7.53;100.00
77325;BME280;66387;53.440;10.390;2024-03-22T01:02:49;101191.91;;;7.55;100.00
77325;BME280;66387;53.440;10.390;2024-03-22T01:05:15;101184.16;;;7.57;100.00
77325;BME280;66387;53.440;10.390;2024-03-22T01:07:40;101183.28;;;7.58;100.00
77325;BME280;66387;53.440;10.390;2024-03-22T01:10:06;101169.47;;;7.50;100.00
77325;BME280;66387;53.440;10.390;2024-03-22T01:12:31;101166.03;;;7.52;100.00
77325;BME280;66387;53.440;10.390;2024-03-22T01:14:57;101168.66;;;7.55;100.00
77325;BME280;66387;53.440;10.390;2024-03-22T01:17:23;101150.50;;;7.51;100.00
77325;BME280;66387;53.440;10.390;2024-03-22T01:19:48;101149.72;;;7.56;100.00
77325;BME280;66387;53.440;10.390;2024-03-22T01:22:14;101157.47;;;7.58;100.00
77325;BME280;66387;53.440;10.390;2024-03-22T01:24:39;101136.75;;;7.49;100.00
77325;BME280;66387;53.440;10.390;2024-03-22T01:27:04;101132.47;;;7.55;100.00
77325;BME280;66387;53.440;10.390;2024-03-22T01:29:30;101135.06;;;7.54;100.00
77325;BME280;66387;53.440;10.390;2024-03-22T01:31:57;101131.63;;;7.58;100.00
77325;BME280;66387;53.440;10.390;2024-03-22T01:34:22;101121.28;;;7.58;100.00
77325;BME280;66387;53.440;10.390;2024-03-22T01:36:48;101121.28;;;7.55;100.00
77325;BME280;66387;53.440;10.390;2024-03-22T01:39:13;101120.44;;;7.59;100.00
77325;BME280;66387;53.440;10.390;2024-03-22T01:41:39;101117.84;;;7.56;100.00
77325;BME280;66387;53.440;10.390;2024-03-22T01:44:04;101116.09;;;7.55;100.00
77325;BME280;66387;53.440;10.390;2024-03-22T01:46:30;101110.09;;;7.56;100.00
77325;BME280;66387;53.440;10.390;2024-03-22T01:48:55;101098.91;;;7.54;100.00
77325;BME280;66387;53.440;10.390;2024-03-22T01:51:20;101093.75;;;7.57;100.00
77325;BME280;66387;53.440;10.390;2024-03-22T01:53:46;101086.84;;;7.59;100.00
77325;BME280;66387;53.440;10.390;2024-03-22T01:56:11;101085.97;;;7.55;100.00
77325;BME280;66387;53.440;10.390;2024-03-22T01:58:36;101064.41;;;7.52;100.00
77325;BME280;66387;53.440;10.390;2024-03-22T02:01:01;101064.41;;;7.52;100.00
77325;BME280;66387;53.440;10.390;2024-03-22T02:03:27;101054.97;;;7.54;100.00
77325;BME280;66387;53.440;10.390;2024-03-22T02:05:52;101044.69;;;7.60;100.00
77325;BME280;66387;53.440;10.390;2024-03-22T02:08:18;101049.00;;;7.64;100.00
77325;BME280;66387;53.440;10.390;2024-03-22T02:10:44;101041.25;;;7.65;100.00
77325;BME280;66387;53.440;10.390;2024-03-22T02:13:10;101038.69;;;7.67;100.00
77325;BME280;66387;53.440;10.390;2024-03-22T02:15:35;101033.50;;;7.67;100.00
77325;BME280;66387;53.440;10.390;2024-03-22T02:18:00;101028.38;;;7.73;100.00
77325;BME280;66387;53.440;10.390;2024-03-22T02:20:26;101030.09;;;7.68;100.00
77325;BME280;66387;53.440;10.390;2024-03-22T02:22:51;101027.50;;;7.69;100.00
77325;BME280;66387;53.440;10.390;2024-03-22T02:25:16;101027.53;;;7.77;100.00
77325;BME280;66387;53.440;10.390;2024-03-22T02:27:41;101023.25;;;7.76;100.00
77325;BME280;66387;53.440;10.390;2024-03-22T02:30:07;101016.31;;;7.76;100.00
77325;BME280;66387;53.440;10.390;2024-03-22T02:32:33;101013.75;;;7.78;100.00
77325;BME280;66387;53.440;10.390;2024-03-22T02:34:58;101008.63;;;7.79;100.00
77325;BME280;66387;53.440;10.390;2024-03-22T02:37:23;101003.44;;;7.81;100.00
77325;BME280;66387;53.440;10.390;2024-03-22T02:39:48;101018.09;;;7.85;100.00
77325;BME280;66387;53.440;10.390;2024-03-22T02:42:14;101016.38;;;7.84;100.00
77325;BME280;66387;53.440;10.390;2024-03-22T02:44:39;101019.84;;;7.92;100.00
77325;BME280;66387;53.440;10.390;2024-03-22T02:47:10;101018.97;;;7.92;100.00
77325;BME280;66387;53.440;10.390;2024-03-22T02:49:37;101017.28;;;7.94;100.00
77325;BME280;66387;53.440;10.390;2024-03-22T02:52:03;101018.16;;;7.97;100.00
77325;BME280;66387;53.440;10.390;2024-03-22T02:54:28;101017.31;;;8.01;100.00
77325;BME280;66387;53.440;10.390;2024-03-22T02:56:54;101017.31;;;8.04;100.00
77325;BME280;66387;53.440;10.390;2024-03-22T02:59:19;101005.25;;;8.08;100.00
77325;BME280;66387;53.440;10.390;2024-03-22T03:01:44;101013.00;;;8.09;100.00
77325;BME280;66387;53.440;10.390;2024-03-22T03:04:09;101001.81;;;8.13;100.00
77325;BME280;66387;53.440;10.390;2024-03-22T03:06:35;101012.16;;;8.16;100.00
77325;BME280;66387;53.440;10.390;2024-03-22T03:09:00;101008.75;;;8.20;100.00
77325;BME280;66387;53.440;10.390;2024-03-22T03:11:25;101002.72;;;8.18;100.00
77325;BME280;66387;53.440;10.390;2024-03-22T03:13:50;100999.25;;;8.18;100.00
77325;BME280;66387;53.440;10.390;2024-03-22T03:16:16;100994.09;;;8.21;100.00
77325;BME280;66387;53.440;10.390;2024-03-22T03:18:41;100994.97;;;8.24;100.00
77325;BME280;66387;53.440;10.390;2024-03-22T03:21:06;100989.78;;;8.24;100.00
77325;BME280;66387;53.440;10.390;2024-03-22T03:23:31;100995.84;;;8.26;100.00
77325;BME280;66387;53.440;10.390;2024-03-22T03:25:56;100994.97;;;8.24;100.00
77325;BME280;66387;53.440;10.390;2024-03-22T03:28:22;100991.53;;;8.25;100.00
77325;BME280;66387;53.440;10.390;2024-03-22T03:30:47;100988.09;;;8.26;100.00
77325;BME280;66387;53.440;10.390;2024-03-22T03:33:12;100977.78;;;8.29;100.00
77325;BME280;66387;53.440;10.390;2024-03-22T03:35:38;100973.44;;;8.31;100.00
77325;BME280;66387;53.440;10.390;2024-03-22T03:38:03;100976.03;;;8.34;100.00
77325;BME280;66387;53.440;10.390;2024-03-22T03:40:28;100970.88;;;8.34;100.00
77325;BME280;66387;53.440;10.390;2024-03-22T03:42:53;100959.66;;;8.32;100.00
77325;BME280;66387;53.440;10.390;2024-03-22T03:45:19;100956.22;;;8.29;100.00
77325;BME280;66387;53.440;10.390;2024-03-22T03:47:44;100957.94;;;8.31;100.00
77325;BME280;66387;53.440;10.390;2024-03-22T03:50:10;100955.34;;;8.30;100.00
77325;BME280;66387;53.440;10.390;2024-03-22T03:52:35;100947.59;;;8.31;100.00
77325;BME280;66387;53.440;10.390;2024-03-22T03:55:00;100945.00;;;8.33;100.00
77325;BME280;66387;53.440;10.390;2024-03-22T03:57:25;100942.41;;;8.31;100.00
77325;BME280;66387;53.440;10.390;2024-03-22T03:59:51;100933.81;;;8.35;100.00
77325;BME280;66387;53.440;10.390;2024-03-22T04:02:16;100945.88;;;8.38;100.00
77325;BME280;66387;53.440;10.390;2024-03-22T04:04:42;100939.84;;;8.38;100.00
77325;BME280;66387;53.440;10.390;2024-03-22T04:07:07;100931.22;;;8.38;100.00
77325;BME280;66387;53.440;10.390;2024-03-22T04:09:32;100918.28;;;8.38;100.00
77325;BME280;66387;53.440;10.390;2024-03-22T04:11:58;100922.63;;;8.41;100.00
77325;BME280;66387;53.440;10.390;2024-03-22T04:14:24;100916.56;;;8.39;100.00
77325;BME280;66387;53.440;10.390;2024-03-22T04:16:49;100913.09;;;8.42;100.00
77325;BME280;66387;53.440;10.390;2024-03-22T04:19:15;100916.56;;;8.44;100.00
77325;BME280;66387;53.440;10.390;2024-03-22T04:21:40;100911.41;;;8.45;100.00
77325;BME280;66387;53.440;10.390;2024-03-22T04:24:05;100899.31;;;8.46;100.00
77325;BME280;66387;53.440;10.390;2024-03-22T04:26:31;100894.16;;;8.49;100.00
77325;BME280;66387;53.440;10.390;2024-03-22T04:28:56;100885.50;;;8.50;100.00
77325;BME280;66387;53.440;10.390;2024-03-22T04:31:22;100875.16;;;8.50;100.00
77325;BME280;66387;53.440;10.390;2024-03-22T04:33:47;100876.91;;;8.51;100.00
77325;BME280;66387;53.440;10.390;2024-03-22T04:36:12;100871.72;;;8.51;100.00
77325;BME280;66387;53.440;10.390;2024-03-22T04:38:38;100863.97;;;8.51;100.00
77325;BME280;66387;53.440;10.390;2024-03-22T04:41:03;100860.50;;;8.53;100.00
77325;BME280;66387;53.440;10.390;2024-03-22T04:43:28;100852.75;;;8.50;100.00
77325;BME280;66387;53.440;10.390;2024-03-22T04:45:54;100845.84;;;8.51;100.00
77325;BME280;66387;53.440;10.390;2024-03-22T04:48:20;100838.94;;;8.54;100.00
77325;BME280;66387;53.440;10.390;2024-03-22T04:50:46;100838.06;;;8.54;100.00
77325;BME280;66387;53.440;10.390;2024-03-22T04:53:15;100840.69;;;8.55;100.00
77325;BME280;66387;53.440;10.390;2024-03-22T04:55:40;100835.50;;;8.55;100.00
77325;BME280;66387;53.440;10.390;2024-03-22T04:58:11;100837.22;;;8.55;100.00
77325;BME280;66387;53.440;10.390;2024-03-22T05:00:36;100845.81;;;8.57;100.00
77325;BME280;66387;53.440;10.390;2024-03-22T05:03:02;100837.22;;;8.58;100.00
77325;BME280;66387;53.440;10.390;2024-03-22T05:05:27;100827.72;;;8.58;100.00
77325;BME280;66387;53.440;10.390;2024-03-22T05:07:52;100832.88;;;8.60;100.00
77325;BME280;66387;53.440;10.390;2024-03-22T05:10:18;100830.31;;;8.57;100.00
77325;BME280;66387;53.440;10.390;2024-03-22T05:12:43;100824.28;;;8.58;100.00
77325;BME280;66387;53.440;10.390;2024-03-22T05:15:08;100816.50;;;8.58;100.00
77325;BME280;66387;53.440;10.390;2024-03-22T05:17:33;100821.69;;;8.59;100.00
77325;BME280;66387;53.440;10.390;2024-03-22T05:19:59;100822.53;;;8.60;100.00
77325;BME280;66387;53.440;10.390;2024-03-22T05:22:24;100807.88;;;8.59;100.00
77325;BME280;66387;53.440;10.390;2024-03-22T05:24:49;100805.28;;;8.57;100.00
77325;BME280;66387;53.440;10.390;2024-03-22T05:27:15;100777.72;;;8.59;100.00
77325;BME280;66387;53.440;10.390;2024-03-22T05:29:40;100795.78;;;8.61;100.00
77325;BME280;66387;53.440;10.390;2024-03-22T05:32:05;100800.97;;;8.62;100.00
77325;BME280;66387;53.440;10.390;2024-03-22T05:34:31;100802.72;;;8.62;100.00
77325;BME280;66387;53.440;10.390;2024-03-22T05:36:56;100803.56;;;8.64;100.00
77325;BME280;66387;53.440;10.390;2024-03-22T05:39:21;100804.41;;;8.64;100.00
77325;BME280;66387;53.440;10.390;2024-03-22T05:41:47;100805.28;;;8.66;100.00
77325;BME280;66387;53.440;10.390;2024-03-22T05:44:12;100794.94;;;8.66;100.00
77325;BME280;66387;53.440;10.390;2024-03-22T05:46:37;100791.50;;;8.66;100.00
77325;BME280;66387;53.440;10.390;2024-03-22T05:49:02;100792.34;;;8.68;100.00
77325;BME280;66387;53.440;10.390;2024-03-22T05:51:28;100801.81;;;8.67;100.00
77325;BME280;66387;53.440;10.390;2024-03-22T05:53:55;100807.00;;;8.69;100.00
77325;BME280;66387;53.440;10.390;2024-03-22T05:56:21;100795.78;;;8.71;100.00
77325;BME280;66387;53.440;10.390;2024-03-22T05:58:46;100794.06;;;8.73;100.00
77325;BME280;66387;53.440;10.390;2024-03-22T06:01:12;100794.03;;;8.78;100.00
77325;BME280;66387;53.440;10.390;2024-03-22T06:03:37;100794.03;;;8.76;100.00
77325;BME280;66387;53.440;10.390;2024-03-22T06:06:02;100794.91;;;8.80;100.00
77325;BME280;66387;53.440;10.390;2024-03-22T06:08:28;100791.41;;;8.82;100.00
77325;BME280;66387;53.440;10.390;2024-03-22T06:10:54;100787.97;;;8.88;100.00
77325;BME280;66387;53.440;10.390;2024-03-22T06:13:20;100788.78;;;8.93;100.00
77325;BME280;66387;53.440;10.390;2024-03-22T06:15:48;100791.34;;;9.01;100.00
77325;BME280;66387;53.440;10.390;2024-03-22T06:18:14;100784.47;;;9.00;100.00
77325;BME280;66387;53.440;10.390;2024-03-22T06:20:39;100781.00;;;9.01;100.00
77325;BME280;66387;53.440;10.390;2024-03-22T06:23:05;100783.59;;;9.02;100.00
77325;BME280;66387;53.440;10.390;2024-03-22T06:25:30;100768.91;;;9.06;100.00
77325;BME280;66387;53.440;10.390;2024-03-22T06:27:55;100774.94;;;9.09;100.00
77325;BME280;66387;53.440;10.390;2024-03-22T06:30:21;100768.00;;;9.14;100.00
77325;BME280;66387;53.440;10.390;2024-03-22T06:32:46;100771.44;;;9.15;100.00
77325;BME280;66387;53.440;10.390;2024-03-22T06:35:12;100766.28;;;9.13;100.00
77325;BME280;66387;53.440;10.390;2024-03-22T06:37:40;100758.50;;;9.18;100.00
77325;BME280;66387;53.440;10.390;2024-03-22T06:40:06;100764.50;;;9.18;100.00
77325;BME280;66387;53.440;10.390;2024-03-22T06:42:32;100756.75;;;9.21;100.00
77325;BME280;66387;53.440;10.390;2024-03-22T06:44:57;100769.72;;;9.21;100.00
77325;BME280;66387;53.440;10.390;2024-03-22T06:47:22;100756.72;;;9.23;100.00
77325;BME280;66387;53.440;10.390;2024-03-22T06:49:48;100755.84;;;9.25;100.00
77325;BME280;66387;53.440;10.390;2024-03-22T06:52:13;100748.09;;;9.28;100.00
77325;BME280;66387;53.440;10.390;2024-03-22T06:54:40;100749.78;;;9.29;100.00
77325;BME280;66387;53.440;10.390;2024-03-22T06:57:05;100735.06;;;9.34;100.00
77325;BME280;66387;53.440;10.390;2024-03-22T06:59:30;100729.84;;;9.41;100.00
77325;BME280;66387;53.440;10.390;2024-03-22T07:01:56;100719.47;;;9.47;100.00
77325;BME280;66387;53.440;10.390;2024-03-22T07:04:21;100721.16;;;9.51;100.00
77325;BME280;66387;53.440;10.390;2024-03-22T07:06:47;100725.47;;;9.53;100.00
77325;BME280;66387;53.440;10.390;2024-03-22T07:09:12;100718.53;;;9.57;100.00
77325;BME280;66387;53.440;10.390;2024-03-22T07:11:37;100724.56;;;9.57;100.00
77325;BME280;66387;53.440;10.390;2024-03-22T07:14:02;100725.41;;;9.59;100.00
77325;BME280;66387;53.440;10.390;2024-03-22T07:16:28;100705.53;;;9.60;100.00
77325;BME280;66387;53.440;10.390;2024-03-22T07:18:53;100698.59;;;9.63;100.00
77325;BME280;66387;53.440;10.390;2024-03-22T07:21:18;100692.53;;;9.63;100.00
77325;BME280;66387;53.440;10.390;2024-03-22T07:23:44;100697.69;;;9.66;100.00
77325;BME280;66387;53.440;10.390;2024-03-22T07:26:09;100702.03;;;9.67;100.00
77325;BME280;66387;53.440;10.390;2024-03-22T07:28:34;100699.41;;;9.65;100.00
77325;BME280;66387;53.440;10.390;2024-03-22T07:31:00;100692.53;;;9.64;100.00
77325;BME280;66387;53.440;10.390;2024-03-22T07:33:25;100695.09;;;9.69;100.00
77325;BME280;66387;53.440;10.390;2024-03-22T07:35:50;100689.94;;;9.69;100.00
77325;BME280;66387;53.440;10.390;2024-03-22T07:38:16;100688.16;;;9.71;100.00
77325;BME280;66387;53.440;10.390;2024-03-22T07:40:42;100685.56;;;9.72;100.00
77325;BME280;66387;53.440;10.390;2024-03-22T07:43:07;100685.53;;;9.75;100.00
77325;BME280;66387;53.440;10.390;2024-03-22T07:45:34;100689.81;;;9.78;100.00
77325;BME280;66387;53.440;10.390;2024-03-22T07:47:59;100689.81;;;9.79;100.00
77325;BME280;66387;53.440;10.390;2024-03-22T07:50:25;100695.00;;;9.78;100.00
77325;BME280;66387;53.440;10.390;2024-03-22T07:52:50;100691.50;;;9.85;100.00
77325;BME280;66387;53.440;10.390;2024-03-22T07:55:15;100701.84;;;9.88;100.00
77325;BME280;66387;53.440;10.390;2024-03-22T07:57:41;100699.22;;;9.91;100.00
77325;BME280;66387;53.440;10.390;2024-03-22T08:00:07;100698.34;;;9.92;100.00
77325;BME280;66387;53.440;10.390;2024-03-22T08:02:33;100698.28;;;9.98;100.00
77325;BME280;66387;53.440;10.390;2024-03-22T08:04:58;100692.22;;;9.99;100.00
77325;BME280;66387;53.440;10.390;2024-03-22T08:07:23;100700.00;;;9.99;100.00
77325;BME280;66387;53.440;10.390;2024-03-22T08:09:48;100694.81;;;9.99;100.00
77325;BME280;66387;53.440;10.390;2024-03-22T08:12:14;100690.47;;;10.04;100.00
77325;BME280;66387;53.440;10.390;2024-03-22T08:14:39;100689.59;;;10.02;100.00
77325;BME280;66387;53.440;10.390;2024-03-22T08:17:04;100694.78;;;10.04;100.00
77325;BME280;66387;53.440;10.390;2024-03-22T08:19:31;100690.47;;;10.03;100.00
77325;BME280;66387;53.440;10.390;2024-03-22T08:21:56;100680.03;;;10.06;100.00
77325;BME280;66387;53.440;10.390;2024-03-22T08:24:21;100680.03;;;10.06;100.00
77325;BME280;66387;53.440;10.390;2024-03-22T08:26:46;100685.22;;;10.07;100.00
77325;BME280;66387;53.440;10.390;2024-03-22T08:29:13;100690.41;;;10.09;100.00
77325;BME280;66387;53.440;10.390;2024-03-22T08:31:39;100679.19;;;10.08;100.00
77325;BME280;66387;53.440;10.390;2024-03-22T08:34:05;100671.41;;;10.07;100.00
77325;BME280;66387;53.440;10.390;2024-03-22T08:36:30;100669.66;;;10.09;100.00
77325;BME280;66387;53.440;10.390;2024-03-22T08:38:56;100665.31;;;10.09;100.00
77325;BME280;66387;53.440;10.390;2024-03-22T08:41:21;100670.56;;;10.05;100.00
77325;BME280;66387;53.440;10.390;2024-03-22T08:43:46;100674.03;;;10.04;100.00
77325;BME280;66387;53.440;10.390;2024-03-22T08:46:11;100674.06;;;9.99;100.00
77325;BME280;66387;53.440;10.390;2024-03-22T08:48:37;100674.13;;;9.92;100.00
77325;BME280;66387;53.440;10.390;2024-03-22T08:51:02;100671.59;;;9.89;100.00
77325;BME280;66387;53.440;10.390;2024-03-22T08:53:27;100661.25;;;9.87;100.00
77325;BME280;66387;53.440;10.390;2024-03-22T08:55:53;100674.22;;;9.87;100.00
77325;BME280;66387;53.440;10.390;2024-03-22T08:58:18;100655.16;;;9.88;100.00
77325;BME280;66387;53.440;10.390;2024-03-22T09:00:44;100650.84;;;9.89;100.00
77325;BME280;66387;53.440;10.390;2024-03-22T09:03:09;100654.28;;;9.91;100.00
77325;BME280;66387;53.440;10.390;2024-03-22T09:05:35;100644.78;;;9.90;100.00
77325;BME280;66387;53.440;10.390;2024-03-22T09:08:00;100643.09;;;9.87;100.00
77325;BME280;66387;53.440;10.390;2024-03-22T09:10:26;100649.97;;;9.88;100.00
77325;BME280;66387;53.440;10.390;2024-03-22T09:12:52;100655.19;;;9.85;100.00
77325;BME280;66387;53.440;10.390;2024-03-22T09:15:17;100648.28;;;9.84;100.00
77325;BME280;66387;53.440;10.390;2024-03-22T09:17:42;100642.25;;;9.83;100.00
77325;BME280;66387;53.440;10.390;2024-03-22T09:20:08;100640.53;;;9.82;100.00
77325;BME280;66387;53.440;10.390;2024-03-22T09:22:33;100642.25;;;9.80;100.00
77325;BME280;66387;53.440;10.390;2024-03-22T09:24:59;100635.38;;;9.79;100.00
77325;BME280;66387;53.440;10.390;2024-03-22T09:27:24;100632.75;;;9.82;100.00
77325;BME280;66387;53.440;10.390;2024-03-22T09:29:49;100623.25;;;9.83;100.00
77325;BME280;66387;53.440;10.390;2024-03-22T09:32:14;100620.66;;;9.83;100.00
77325;BME280;66387;53.440;10.390;2024-03-22T09:34:40;100623.22;;;9.84;100.00
77325;BME280;66387;53.440;10.390;2024-03-22T09:37:05;100625.81;;;9.84;100.00
77325;BME280;66387;53.440;10.390;2024-03-22T09:39:31;100624.03;;;9.88;100.00
77325;BME280;66387;53.440;10.390;2024-03-22T09:42:05;100615.41;;;9.89;100.00
77325;BME280;66387;53.440;10.390;2024-03-22T09:44:32;100620.59;;;9.91;100.00
77325;BME280;66387;53.440;10.390;2024-03-22T09:47:04;100612.78;;;9.92;100.00
77325;BME280;66387;53.440;10.390;2024-03-22T09:49:29;100611.03;;;9.94;100.00
77325;BME280;66387;53.440;10.390;2024-03-22T09:51:55;100602.44;;;9.91;100.00
77325;BME280;66387;53.440;10.390;2024-03-22T09:54:24;100612.72;;;9.95;100.00
77325;BME280;66387;53.440;10.390;2024-03-22T09:56:50;100604.91;;;9.98;100.00
77325;BME280;66387;53.440;10.390;2024-03-22T09:59:17;100598.91;;;9.95;100.00
77325;BME280;66387;53.440;10.390;2024-03-22T10:01:54;100596.34;;;9.92;100.00
77325;BME280;66387;53.440;10.390;2024-03-22T10:04:19;100591.16;;;9.93;100.00
77325;BME280;66387;53.440;10.390;2024-03-22T10:06:54;100595.50;;;9.91;100.00
77325;BME280;66387;53.440;10.390;2024-03-22T10:09:28;100590.38;;;9.87;100.00
77325;BME280;66387;53.440;10.390;2024-03-22T10:12:00;100588.72;;;9.78;100.00
77325;BME280;66387;53.440;10.390;2024-03-22T10:14:25;100585.31;;;9.76;100.00
77325;BME280;66387;53.440;10.390;2024-03-22T10:16:54;100581.81;;;9.77;100.00
77325;BME280;66387;53.440;10.390;2024-03-22T10:19:23;100574.00;;;9.80;100.00
77325;BME280;66387;53.440;10.390;2024-03-22T10:22:22;100584.41;;;9.77;100.00
77325;BME280;66387;53.440;10.390;2024-03-22T10:24:49;100577.53;;;9.76;100.00
77325;BME280;66387;53.440;10.390;2024-03-22T10:27:16;100571.47;;;9.74;100.00
77325;BME280;66387;53.440;10.390;2024-03-22T10:29:41;100567.97;;;9.78;100.00
77325;BME280;66387;53.440;10.390;2024-03-22T10:32:13;100578.34;;;9.76;100.00
77325;BME280;66387;53.440;10.390;2024-03-22T10:34:39;100560.25;;;9.75;100.00
77325;BME280;66387;53.440;10.390;2024-03-22T10:37:08;100572.28;;;9.80;100.00
77325;BME280;66387;53.440;10.390;2024-03-22T10:39:35;100575.75;;;9.78;100.00
77325;BME280;66387;53.440;10.390;2024-03-22T10:42:02;100573.16;;;9.78;100.00
77325;BME280;66387;53.440;10.390;2024-03-22T10:44:28;100574.03;;;9.77;100.00
77325;BME280;66387;53.440;10.390;2024-03-22T10:46:58;100567.16;;;9.76;100.00
77325;BME280;66387;53.440;10.390;2024-03-22T10:49:27;100568.88;;;9.74;100.00
77325;BME280;66387;53.440;10.390;2024-03-22T10:51:58;100580.94;;;9.78;100.00
77325;BME280;66387;53.440;10.390;2024-03-22T10:54:37;100571.41;;;9.80;100.00
77325;BME280;66387;53.440;10.390;2024-03-22T10:57:12;100576.56;;;9.84;100.00
77325;BME280;66387;53.440;10.390;2024-03-22T10:59:41;100571.31;;;9.88;100.00
77325;BME280;66387;53.440;10.390;2024-03-22T11:02:12;100572.19;;;9.88;100.00
77325;BME280;66387;53.440;10.390;2024-03-22T11:04:53;100567.88;;;9.90;100.00
77325;BME280;66387;53.440;10.390;2024-03-22T11:07:21;100567.88;;;9.90;100.00
77325;BME280;66387;53.440;10.390;2024-03-22T11:10:05;100553.94;;;9.96;100.00
77325;BME280;66387;53.440;10.390;2024-03-22T11:12:31;100548.81;;;9.94;100.00
77325;BME280;66387;53.440;10.390;2024-03-22T11:15:01;100547.91;;;9.95;100.00
77325;BME280;66387;53.440;10.390;2024-03-22T11:17:27;100552.31;;;9.89;100.00
77325;BME280;66387;53.440;10.390;2024-03-22T11:19:52;100548.81;;;9.94;100.00
77325;BME280;66387;53.440;10.390;2024-03-22T11:22:18;100542.72;;;9.97;100.00
77325;BME280;66387;53.440;10.390;2024-03-22T11:24:43;100542.69;;;9.98;100.00
77325;BME280;66387;53.440;10.390;2024-03-22T11:27:10;100544.38;;;10.02;100.00
77325;BME280;66387;53.440;10.390;2024-03-22T11:29:45;100541.75;;;10.04;100.00
77325;BME280;66387;53.440;10.390;2024-03-22T11:32:16;100535.66;;;10.06;100.00
77325;BME280;66387;53.440;10.390;2024-03-22T11:34:42;100547.78;;;10.07;100.00
77325;BME280;66387;53.440;10.390;2024-03-22T11:37:16;100547.78;;;10.06;100.00
77325;BME280;66387;53.440;10.390;2024-03-22T11:39:41;100551.19;;;10.09;100.00
77325;BME280;66387;53.440;10.390;2024-03-22T11:42:08;100549.44;;;10.14;100.00
77325;BME280;66387;53.440;10.390;2024-03-22T11:44:36;100545.97;;;10.15;100.00
77325;BME280;66387;53.440;10.390;2024-03-22T11:47:04;100541.63;;;10.13;100.00
77325;BME280;66387;53.440;10.390;2024-03-22T11:49:29;100533.84;;;10.17;100.00
77325;BME280;66387;53.440;10.390;2024-03-22T11:51:56;100533.00;;;10.15;100.00
77325;BME280;66387;53.440;10.390;2024-03-22T11:54:22;100525.22;;;10.15;100.00
77325;BME280;66387;53.440;10.390;2024-03-22T11:56:48;100533.00;;;10.15;100.00
77325;BME280;66387;53.440;10.390;2024-03-22T11:59:13;100530.44;;;10.12;100.00
77325;BME280;66387;53.440;10.390;2024-03-22T12:01:40;100530.44;;;10.12;100.00
77325;BME280;66387;53.440;10.390;2024-03-22T12:04:05;100527.84;;;10.12;100.00
77325;BME280;66387;53.440;10.390;2024-03-22T12:06:34;100526.13;;;10.10;100.00
77325;BME280;66387;53.440;10.390;2024-03-22T12:08:59;100516.56;;;10.13;100.00
77325;BME280;66387;53.440;10.390;2024-03-22T12:11:25;100514.06;;;10.09;100.00
77325;BME280;66387;53.440;10.390;2024-03-22T12:13:50;100515.75;;;10.10;100.00
77325;BME280;66387;53.440;10.390;2024-03-22T12:16:15;100517.50;;;10.06;100.00
77325;BME280;66387;53.440;10.390;2024-03-22T12:18:40;100503.63;;;10.10;100.00
77325;BME280;66387;53.440;10.390;2024-03-22T12:21:06;100501.03;;;10.10;100.00
77325;BME280;66387;53.440;10.390;2024-03-22T12:23:32;100501.94;;;10.06;100.00
77325;BME280;66387;53.440;10.390;2024-03-22T12:25:57;100505.38;;;10.10;100.00
77325;BME280;66387;53.440;10.390;2024-03-22T12:28:22;100501.91;;;10.11;100.00
77325;BME280;66387;53.440;10.390;2024-03-22T12:30:49;100489.75;;;10.17;100.00
77325;BME280;66387;53.440;10.390;2024-03-22T12:33:14;100484.53;;;10.19;100.00